sensor_id;sensor_type;location;lat;lon;timestamp;temperature;humidity
6822;DHT22;3449;48.728;8.968;2023-02-01T00:00:27;1.80;99.90
6822;DHT22;3449;48.728;8.968;2023-02-01T00:02:53;1.70;99.90
6822;DHT22;3449;48.728;8.968;2023-02-01T00:05:22;1.80;99.90
6822;DHT22;3449;48.728;8.968;2023-02-01T00:07:49;1.70;99.90
6822;DHT22;3449;48.728;8.968;2023-02-01T00:10:16;1.80;99.90
6822;DHT22;3449;48.728;8.968;2023-02-01T00:12:43;1.80;99.90
6822;DHT22;3449;48.728;8.968;2023-02-01T00:15:10;1.70;99.90
6822;DHT22;3449;48.728;8.968;2023-02-01T00:17:37;1.70;99.90
6822;DHT22;3449;48.728;8.968;2023-02-01T00:20:05;1.70;99.90
6822;DHT22;3449;48.728;8.968;2023-02-01T00:22:33;1.80;99.90
6822;DHT22;3449;48.728;8.968;2023-02-01T00:25:00;1.80;99.90
6822;DHT22;3449;48.728;8.968;2023-02-01T00:27:27;1.80;99.90
6822;DHT22;3449;48.728;8.968;2023-02-01T00:29:54;1.80;99.90
6822;DHT22;3449;48.728;8.968;2023-02-01T00:32:21;1.80;99.90
6822;DHT22;3449;48.728;8.968;2023-02-01T00:34:48;1.80;99.90
6822;DHT22;3449;48.728;8.968;2023-02-01T00:37:15;1.70;99.90
6822;DHT22;3449;48.728;8.968;2023-02-01T00:39:43;1.80;99.90
6822;DHT22;3449;48.728;8.968;2023-02-01T00:42:10;1.80;99.90
6822;DHT22;3449;48.728;8.968;2023-02-01T00:44:37;1.80;99.90
6822;DHT22;3449;48.728;8.968;2023-02-01T00:47:03;1.80;99.90
6822;DHT22;3449;48.728;8.968;2023-02-01T00:49:30;1.80;99.90
6822;DHT22;3449;48.728;8.968;2023-02-01T00:51:58;1.80;99.90
6822;DHT22;3449;48.728;8.968;2023-02-01T00:54:24;1.80;99.90
6822;DHT22;3449;48.728;8.968;2023-02-01T00:56:53;1.80;99.90
6822;DHT22;3449;48.728;8.968;2023-02-01T00:59:19;1.80;99.90
6822;DHT22;3449;48.728;8.968;2023-02-01T01:01:46;1.90;99.90
6822;DHT22;3449;48.728;8.968;2023-02-01T01:04:13;1.80;99.90
6822;DHT22;3449;48.728;8.968;2023-02-01T01:06:40;2.00;99.90
6822;DHT22;3449;48.728;8.968;2023-02-01T01:09:07;1.90;99.90
6822;DHT22;3449;48.728;8.968;2023-02-01T01:11:36;1.90;99.90
6822;DHT22;3449;48.728;8.968;2023-02-01T01:14:08;1.80;99.90
6822;DHT22;3449;48.728;8.968;2023-02-01T01:16:35;1.90;99.90
6822;DHT22;3449;48.728;8.968;2023-02-01T01:19:02;1.90;99.90
6822;DHT22;3449;48.728;8.968;2023-02-01T01:21:30;1.90;99.90
6822;DHT22;3449;48.728;8.968;2023-02-01T01:23:57;1.90;99.90
6822;DHT22;3449;48.728;8.968;2023-02-01T01:26:27;1.90;99.90
6822;DHT22;3449;48.728;8.968;2023-02-01T01:28:55;1.90;99.90
6822;DHT22;3449;48.728;8.968;2023-02-01T01:31:23;1.90;99.90
6822;DHT22;3449;48.728;8.968;2023-02-01T01:33:53;1.90;99.90
6822;DHT22;3449;48.728;8.968;2023-02-01T01:36:20;1.90;99.90
6822;DHT22;3449;48.728;8.968;2023-02-01T01:38:48;1.90;99.90
6822;DHT22;3449;48.728;8.968;2023-02-01T01:41:18;1.90;99.90
6822;DHT22;3449;48.728;8.968;2023-02-01T01:43:51;1.90;99.90
6822;DHT22;3449;48.728;8.968;2023-02-01T01:46:19;1.90;99.90
6822;DHT22;3449;48.728;8.968;2023-02-01T01:48:48;1.90;99.90
6822;DHT22;3449;48.728;8.968;2023-02-01T01:51:20;1.90;99.90
6822;DHT22;3449;48.728;8.968;2023-02-01T01:53:51;1.90;99.90
6822;DHT22;3449;48.728;8.968;2023-02-01T01:56:21;1.90;99.90
6822;DHT22;3449;48.728;8.968;2023-02-01T01:58:48;1.90;99.90
6822;DHT22;3449;48.728;8.968;2023-02-01T02:01:16;1.90;99.90
6822;DHT22;3449;48.728;8.968;2023-02-01T02:03:44;1.90;99.90
6822;DHT22;3449;48.728;8.968;2023-02-01T02:06:23;2.10;99.90
6822;DHT22;3449;48.728;8.968;2023-02-01T02:08:53;2.00;99.90
6822;DHT22;3449;48.728;8.968;2023-02-01T02:11:20;2.00;99.90
6822;DHT22;3449;48.728;8.968;2023-02-01T02:13:49;2.00;99.90
6822;DHT22;3449;48.728;8.968;2023-02-01T02:16:35;2.00;99.90
6822;DHT22;3449;48.728;8.968;2023-02-01T02:22:36;2.00;99.90
6822;DHT22;3449;48.728;8.968;2023-02-01T02:28:36;2.00;99.90
6822;DHT22;3449;48.728;8.968;2023-02-01T02:31:23;2.00;99.90
6822;DHT22;3449;48.728;8.968;2023-02-01T02:34:03;2.00;99.90
6822;DHT22;3449;48.728;8.968;2023-02-01T02:36:39;2.00;99.90
6822;DHT22;3449;48.728;8.968;2023-02-01T02:39:16;2.00;99.90
6822;DHT22;3449;48.728;8.968;2023-02-01T02:41:52;2.00;99.90
6822;DHT22;3449;48.728;8.968;2023-02-01T02:44:45;2.00;99.90
6822;DHT22;3449;48.728;8.968;2023-02-01T02:47:35;2.10;99.90
6822;DHT22;3449;48.728;8.968;2023-02-01T02:50:12;2.10;99.90
6822;DHT22;3449;48.728;8.968;2023-02-01T02:53:03;2.10;99.90
6822;DHT22;3449;48.728;8.968;2023-02-01T02:55:50;2.10;99.90
6822;DHT22;3449;48.728;8.968;2023-02-01T02:58:18;2.10;99.90
6822;DHT22;3449;48.728;8.968;2023-02-01T03:01:03;2.10;99.90
6822;DHT22;3449;48.728;8.968;2023-02-01T03:03:48;2.10;99.90
6822;DHT22;3449;48.728;8.968;2023-02-01T03:06:37;2.10;99.90
6822;DHT22;3449;48.728;8.968;2023-02-01T03:09:09;2.10;99.90
6822;DHT22;3449;48.728;8.968;2023-02-01T03:11:39;2.10;99.90
6822;DHT22;3449;48.728;8.968;2023-02-01T03:14:28;2.10;99.90
6822;DHT22;3449;48.728;8.968;2023-02-01T03:17:01;2.10;99.90
6822;DHT22;3449;48.728;8.968;2023-02-01T03:19:34;2.10;99.90
6822;DHT22;3449;48.728;8.968;2023-02-01T03:22:06;2.10;99.90
6822;DHT22;3449;48.728;8.968;2023-02-01T03:24:37;2.10;99.90
6822;DHT22;3449;48.728;8.968;2023-02-01T03:27:08;2.10;99.90
6822;DHT22;3449;48.728;8.968;2023-02-01T03:29:48;2.10;99.90
6822;DHT22;3449;48.728;8.968;2023-02-01T03:32:17;2.10;99.90
6822;DHT22;3449;48.728;8.968;2023-02-01T03:34:44;2.10;99.90
6822;DHT22;3449;48.728;8.968;2023-02-01T03:37:16;2.10;99.90
6822;DHT22;3449;48.728;8.968;2023-02-01T03:39:48;2.10;99.90
6822;DHT22;3449;48.728;8.968;2023-02-01T03:42:21;2.10;99.90
6822;DHT22;3449;48.728;8.968;2023-02-01T03:44:54;2.10;99.90
6822;DHT22;3449;48.728;8.968;2023-02-01T03:47:26;2.10;99.90
6822;DHT22;3449;48.728;8.968;2023-02-01T03:49:55;2.10;99.90
6822;DHT22;3449;48.728;8.968;2023-02-01T03:52:27;2.10;99.90
6822;DHT22;3449;48.728;8.968;2023-02-01T03:54:55;2.10;99.90
6822;DHT22;3449;48.728;8.968;2023-02-01T03:57:26;2.20;99.90
6822;DHT22;3449;48.728;8.968;2023-02-01T03:59:53;2.10;99.90
6822;DHT22;3449;48.728;8.968;2023-02-01T04:02:20;2.10;99.90
6822;DHT22;3449;48.728;8.968;2023-02-01T04:04:47;2.10;99.90
6822;DHT22;3449;48.728;8.968;2023-02-01T04:07:14;2.20;99.90
6822;DHT22;3449;48.728;8.968;2023-02-01T04:09:43;2.10;99.90
6822;DHT22;3449;48.728;8.968;2023-02-01T04:12:10;2.10;99.90
6822;DHT22;3449;48.728;8.968;2023-02-01T04:14:37;2.10;99.90
6822;DHT22;3449;48.728;8.968;2023-02-01T04:17:04;2.10;99.90
6822;DHT22;3449;48.728;8.968;2023-02-01T04:19:31;2.10;99.90
6822;DHT22;3449;48.728;8.968;2023-02-01T04:21:57;2.20;99.90
6822;DHT22;3449;48.728;8.968;2023-02-01T04:24:24;2.20;99.90
6822;DHT22;3449;48.728;8.968;2023-02-01T04:26:53;2.20;99.90
6822;DHT22;3449;48.728;8.968;2023-02-01T04:29:19;2.20;99.90
6822;DHT22;3449;48.728;8.968;2023-02-01T04:31:46;2.20;99.90
6822;DHT22;3449;48.728;8.968;2023-02-01T04:34:14;2.20;99.90
6822;DHT22;3449;48.728;8.968;2023-02-01T04:36:41;2.20;99.90
6822;DHT22;3449;48.728;8.968;2023-02-01T04:39:08;2.20;99.90
6822;DHT22;3449;48.728;8.968;2023-02-01T04:41:35;2.20;99.90
6822;DHT22;3449;48.728;8.968;2023-02-01T04:44:04;2.20;99.90
6822;DHT22;3449;48.728;8.968;2023-02-01T04:46:31;2.20;99.90
6822;DHT22;3449;48.728;8.968;2023-02-01T04:48:57;2.30;99.90
6822;DHT22;3449;48.728;8.968;2023-02-01T04:51:24;2.40;99.90
6822;DHT22;3449;48.728;8.968;2023-02-01T04:53:51;2.20;99.90
6822;DHT22;3449;48.728;8.968;2023-02-01T04:56:18;2.20;99.90
6822;DHT22;3449;48.728;8.968;2023-02-01T04:58:45;2.20;99.90
6822;DHT22;3449;48.728;8.968;2023-02-01T05:01:13;2.20;99.90
6822;DHT22;3449;48.728;8.968;2023-02-01T05:03:40;2.20;99.90
6822;DHT22;3449;48.728;8.968;2023-02-01T05:06:07;2.20;99.90
6822;DHT22;3449;48.728;8.968;2023-02-01T05:08:34;2.20;99.90
6822;DHT22;3449;48.728;8.968;2023-02-01T05:11:01;2.20;99.90
6822;DHT22;3449;48.728;8.968;2023-02-01T05:13:29;2.20;99.90
6822;DHT22;3449;48.728;8.968;2023-02-01T05:16:15;2.20;99.90
6822;DHT22;3449;48.728;8.968;2023-02-01T05:18:42;2.20;99.90
6822;DHT22;3449;48.728;8.968;2023-02-01T05:21:09;2.20;99.90
6822;DHT22;3449;48.728;8.968;2023-02-01T05:23:36;2.10;99.90
6822;DHT22;3449;48.728;8.968;2023-02-01T05:26:23;2.10;99.90
6822;DHT22;3449;48.728;8.968;2023-02-01T05:28:50;2.20;99.90
6822;DHT22;3449;48.728;8.968;2023-02-01T05:31:18;2.20;99.90
6822;DHT22;3449;48.728;8.968;2023-02-01T05:33:45;2.20;99.90
6822;DHT22;3449;48.728;8.968;2023-02-01T05:36:12;2.20;99.90
6822;DHT22;3449;48.728;8.968;2023-02-01T05:38:40;2.30;99.90
6822;DHT22;3449;48.728;8.968;2023-02-01T05:41:06;2.30;99.90
6822;DHT22;3449;48.728;8.968;2023-02-01T05:43:33;2.40;99.90
6822;DHT22;3449;48.728;8.968;2023-02-01T05:46:01;2.40;99.90
6822;DHT22;3449;48.728;8.968;2023-02-01T05:48:29;2.50;99.90
6822;DHT22;3449;48.728;8.968;2023-02-01T05:50:56;2.40;99.90
6822;DHT22;3449;48.728;8.968;2023-02-01T05:53:23;2.40;99.90
6822;DHT22;3449;48.728;8.968;2023-02-01T05:55:50;2.50;99.90
6822;DHT22;3449;48.728;8.968;2023-02-01T05:58:17;2.50;99.90
6822;DHT22;3449;48.728;8.968;2023-02-01T06:00:44;2.50;99.90
6822;DHT22;3449;48.728;8.968;2023-02-01T06:03:11;2.70;99.90
6822;DHT22;3449;48.728;8.968;2023-02-01T06:05:39;2.70;99.90
6822;DHT22;3449;48.728;8.968;2023-02-01T06:08:06;2.70;99.90
6822;DHT22;3449;48.728;8.968;2023-02-01T06:10:34;2.80;99.90
6822;DHT22;3449;48.728;8.968;2023-02-01T06:13:01;2.80;99.90
6822;DHT22;3449;48.728;8.968;2023-02-01T06:15:28;2.80;99.90
6822;DHT22;3449;48.728;8.968;2023-02-01T06:17:55;2.80;99.90
6822;DHT22;3449;48.728;8.968;2023-02-01T06:20:22;2.80;99.90
6822;DHT22;3449;48.728;8.968;2023-02-01T06:22:50;2.80;99.90
6822;DHT22;3449;48.728;8.968;2023-02-01T06:25:18;2.80;99.90
6822;DHT22;3449;48.728;8.968;2023-02-01T06:27:46;2.90;99.90
6822;DHT22;3449;48.728;8.968;2023-02-01T06:30:14;2.90;99.90
6822;DHT22;3449;48.728;8.968;2023-02-01T06:32:41;3.00;99.90
6822;DHT22;3449;48.728;8.968;2023-02-01T06:35:08;3.00;99.90
6822;DHT22;3449;48.728;8.968;2023-02-01T06:37:37;3.10;99.90
6822;DHT22;3449;48.728;8.968;2023-02-01T06:40:06;3.10;99.90
6822;DHT22;3449;48.728;8.968;2023-02-01T06:42:33;3.20;99.90
6822;DHT22;3449;48.728;8.968;2023-02-01T06:45:00;3.20;99.90
6822;DHT22;3449;48.728;8.968;2023-02-01T06:47:27;3.20;99.90
6822;DHT22;3449;48.728;8.968;2023-02-01T06:49:53;3.20;99.90
6822;DHT22;3449;48.728;8.968;2023-02-01T06:52:20;3.10;99.90
6822;DHT22;3449;48.728;8.968;2023-02-01T06:54:47;3.20;99.90
6822;DHT22;3449;48.728;8.968;2023-02-01T06:57:15;3.10;99.90
6822;DHT22;3449;48.728;8.968;2023-02-01T06:59:42;3.10;99.90
6822;DHT22;3449;48.728;8.968;2023-02-01T07:02:10;3.10;99.90
6822;DHT22;3449;48.728;8.968;2023-02-01T07:04:37;3.10;99.90
6822;DHT22;3449;48.728;8.968;2023-02-01T07:07:04;3.10;99.90
6822;DHT22;3449;48.728;8.968;2023-02-01T07:09:31;3.10;99.90
6822;DHT22;3449;48.728;8.968;2023-02-01T07:11:57;3.10;99.90
6822;DHT22;3449;48.728;8.968;2023-02-01T07:14:26;3.10;99.90
6822;DHT22;3449;48.728;8.968;2023-02-01T07:16:53;3.10;99.90
6822;DHT22;3449;48.728;8.968;2023-02-01T07:19:19;3.20;99.90
6822;DHT22;3449;48.728;8.968;2023-02-01T07:21:46;3.20;99.90
6822;DHT22;3449;48.728;8.968;2023-02-01T07:24:13;3.20;99.90
6822;DHT22;3449;48.728;8.968;2023-02-01T07:26:41;3.10;99.90
6822;DHT22;3449;48.728;8.968;2023-02-01T07:29:07;3.10;99.90
6822;DHT22;3449;48.728;8.968;2023-02-01T07:31:36;3.10;99.90
6822;DHT22;3449;48.728;8.968;2023-02-01T07:34:02;3.10;99.90
6822;DHT22;3449;48.728;8.968;2023-02-01T07:36:30;3.10;99.90
6822;DHT22;3449;48.728;8.968;2023-02-01T07:38:57;3.20;99.90
6822;DHT22;3449;48.728;8.968;2023-02-01T07:41:25;3.20;99.90
6822;DHT22;3449;48.728;8.968;2023-02-01T07:43:52;3.30;99.90
6822;DHT22;3449;48.728;8.968;2023-02-01T07:46:20;3.20;99.90
6822;DHT22;3449;48.728;8.968;2023-02-01T07:48:48;3.20;99.90
6822;DHT22;3449;48.728;8.968;2023-02-01T07:51:16;3.30;99.90
6822;DHT22;3449;48.728;8.968;2023-02-01T07:53:44;3.30;99.90
6822;DHT22;3449;48.728;8.968;2023-02-01T07:56:12;3.40;99.90
6822;DHT22;3449;48.728;8.968;2023-02-01T07:58:40;3.40;99.90
6822;DHT22;3449;48.728;8.968;2023-02-01T08:01:13;3.50;99.90
6822;DHT22;3449;48.728;8.968;2023-02-01T08:03:45;3.50;99.90
6822;DHT22;3449;48.728;8.968;2023-02-01T08:06:14;3.50;99.90
6822;DHT22;3449;48.728;8.968;2023-02-01T08:08:40;3.50;99.90
6822;DHT22;3449;48.728;8.968;2023-02-01T08:11:08;3.50;99.90
6822;DHT22;3449;48.728;8.968;2023-02-01T08:13:35;3.60;99.90
6822;DHT22;3449;48.728;8.968;2023-02-01T08:16:04;3.70;99.90
6822;DHT22;3449;48.728;8.968;2023-02-01T08:18:31;3.70;99.90
6822;DHT22;3449;48.728;8.968;2023-02-01T08:21:03;3.80;99.90
6822;DHT22;3449;48.728;8.968;2023-02-01T08:23:32;3.80;99.90
6822;DHT22;3449;48.728;8.968;2023-02-01T08:26:09;3.80;99.90
6822;DHT22;3449;48.728;8.968;2023-02-01T08:28:37;3.80;99.90
6822;DHT22;3449;48.728;8.968;2023-02-01T08:31:07;3.80;99.90
6822;DHT22;3449;48.728;8.968;2023-02-01T08:33:35;3.80;99.90
6822;DHT22;3449;48.728;8.968;2023-02-01T08:36:03;3.90;99.90
6822;DHT22;3449;48.728;8.968;2023-02-01T08:38:32;3.90;99.90
6822;DHT22;3449;48.728;8.968;2023-02-01T08:41:04;4.00;99.90
6822;DHT22;3449;48.728;8.968;2023-02-01T08:43:31;4.00;99.90
6822;DHT22;3449;48.728;8.968;2023-02-01T08:45:58;4.10;99.90
6822;DHT22;3449;48.728;8.968;2023-02-01T08:48:25;4.20;99.90
6822;DHT22;3449;48.728;8.968;2023-02-01T08:50:52;4.20;99.90
6822;DHT22;3449;48.728;8.968;2023-02-01T08:53:20;4.20;99.90
6822;DHT22;3449;48.728;8.968;2023-02-01T08:55:48;4.10;99.90
6822;DHT22;3449;48.728;8.968;2023-02-01T08:58:16;4.10;99.90
6822;DHT22;3449;48.728;8.968;2023-02-01T09:00:43;4.10;99.90
6822;DHT22;3449;48.728;8.968;2023-02-01T09:03:11;4.10;99.90
6822;DHT22;3449;48.728;8.968;2023-02-01T09:05:38;4.00;99.90
6822;DHT22;3449;48.728;8.968;2023-02-01T09:08:06;4.10;99.90
6822;DHT22;3449;48.728;8.968;2023-02-01T09:10:33;4.00;99.90
6822;DHT22;3449;48.728;8.968;2023-02-01T09:13:02;4.00;99.90
6822;DHT22;3449;48.728;8.968;2023-02-01T09:15:31;4.00;99.90
6822;DHT22;3449;48.728;8.968;2023-02-01T09:17:57;4.00;99.90
6822;DHT22;3449;48.728;8.968;2023-02-01T09:20:24;4.00;99.90
6822;DHT22;3449;48.728;8.968;2023-02-01T09:22:52;4.00;99.90
6822;DHT22;3449;48.728;8.968;2023-02-01T09:25:19;4.00;99.90
6822;DHT22;3449;48.728;8.968;2023-02-01T09:27:47;4.00;99.90
6822;DHT22;3449;48.728;8.968;2023-02-01T09:30:16;4.00;99.90
6822;DHT22;3449;48.728;8.968;2023-02-01T09:32:43;4.00;99.90
6822;DHT22;3449;48.728;8.968;2023-02-01T09:35:10;4.00;99.90
6822;DHT22;3449;48.728;8.968;2023-02-01T09:37:37;4.00;99.90
6822;DHT22;3449;48.728;8.968;2023-02-01T09:40:05;4.10;99.90
6822;DHT22;3449;48.728;8.968;2023-02-01T09:42:50;4.10;99.90
6822;DHT22;3449;48.728;8.968;2023-02-01T09:45:29;4.20;99.90
6822;DHT22;3449;48.728;8.968;2023-02-01T09:48:02;4.30;99.90
6822;DHT22;3449;48.728;8.968;2023-02-01T09:50:33;4.30;99.90
6822;DHT22;3449;48.728;8.968;2023-02-01T09:53:04;4.30;99.90
6822;DHT22;3449;48.728;8.968;2023-02-01T09:55:37;4.40;99.90
6822;DHT22;3449;48.728;8.968;2023-02-01T09:58:08;4.50;99.90
6822;DHT22;3449;48.728;8.968;2023-02-01T10:00:41;4.60;99.90
6822;DHT22;3449;48.728;8.968;2023-02-01T10:03:12;4.70;99.90
6822;DHT22;3449;48.728;8.968;2023-02-01T10:05:56;4.70;99.90
6822;DHT22;3449;48.728;8.968;2023-02-01T10:08:36;4.80;99.90
6822;DHT22;3449;48.728;8.968;2023-02-01T10:11:17;4.90;99.90
6822;DHT22;3449;48.728;8.968;2023-02-01T10:14:02;4.90;99.90
6822;DHT22;3449;48.728;8.968;2023-02-01T10:16:39;4.90;99.90
6822;DHT22;3449;48.728;8.968;2023-02-01T10:19:24;4.80;99.90
6822;DHT22;3449;48.728;8.968;2023-02-01T10:22:00;4.80;99.90
6822;DHT22;3449;48.728;8.968;2023-02-01T10:24:41;4.70;99.90
6822;DHT22;3449;48.728;8.968;2023-02-01T10:27:13;4.70;99.90
6822;DHT22;3449;48.728;8.968;2023-02-01T10:29:43;4.70;99.90
6822;DHT22;3449;48.728;8.968;2023-02-01T10:32:16;4.70;99.90
6822;DHT22;3449;48.728;8.968;2023-02-01T10:34:47;4.70;99.90
6822;DHT22;3449;48.728;8.968;2023-02-01T10:37:23;4.70;99.90
6822;DHT22;3449;48.728;8.968;2023-02-01T10:39:53;4.70;99.90
6822;DHT22;3449;48.728;8.968;2023-02-01T10:42:25;4.70;99.90
6822;DHT22;3449;48.728;8.968;2023-02-01T10:44:54;4.70;99.90
6822;DHT22;3449;48.728;8.968;2023-02-01T10:47:24;4.70;99.90
6822;DHT22;3449;48.728;8.968;2023-02-01T10:49:56;4.70;99.90
6822;DHT22;3449;48.728;8.968;2023-02-01T10:52:31;4.70;99.90
6822;DHT22;3449;48.728;8.968;2023-02-01T10:58:15;4.70;99.90
6822;DHT22;3449;48.728;8.968;2023-02-01T11:00:48;4.70;99.90
6822;DHT22;3449;48.728;8.968;2023-02-01T11:03:40;4.70;99.90
6822;DHT22;3449;48.728;8.968;2023-02-01T11:06:17;4.70;99.90
6822;DHT22;3449;48.728;8.968;2023-02-01T11:08:47;4.70;99.90
6822;DHT22;3449;48.728;8.968;2023-02-01T11:11:15;4.70;99.90
6822;DHT22;3449;48.728;8.968;2023-02-01T11:13:42;4.70;99.90
6822;DHT22;3449;48.728;8.968;2023-02-01T11:16:12;4.70;99.90
6822;DHT22;3449;48.728;8.968;2023-02-01T11:18:42;4.80;99.90
6822;DHT22;3449;48.728;8.968;2023-02-01T11:21:10;4.80;99.90
6822;DHT22;3449;48.728;8.968;2023-02-01T11:23:42;4.90;99.90
6822;DHT22;3449;48.728;8.968;2023-02-01T11:26:12;4.90;99.90
6822;DHT22;3449;48.728;8.968;2023-02-01T11:28:46;4.90;99.90
6822;DHT22;3449;48.728;8.968;2023-02-01T11:31:16;5.00;99.90
6822;DHT22;3449;48.728;8.968;2023-02-01T11:33:51;4.90;99.90
6822;DHT22;3449;48.728;8.968;2023-02-01T11:36:23;4.90;99.90
6822;DHT22;3449;48.728;8.968;2023-02-01T11:38:54;4.90;99.90
6822;DHT22;3449;48.728;8.968;2023-02-01T11:41:33;4.80;99.90
6822;DHT22;3449;48.728;8.968;2023-02-01T11:44:11;4.90;99.90
6822;DHT22;3449;48.728;8.968;2023-02-01T11:46:42;4.90;99.90
6822;DHT22;3449;48.728;8.968;2023-02-01T11:49:23;4.90;99.90
6822;DHT22;3449;48.728;8.968;2023-02-01T11:52:03;4.90;99.90
6822;DHT22;3449;48.728;8.968;2023-02-01T11:55:01;4.90;99.90
6822;DHT22;3449;48.728;8.968;2023-02-01T11:57:42;4.90;99.90
6822;DHT22;3449;48.728;8.968;2023-02-01T12:00:29;5.00;99.90
6822;DHT22;3449;48.728;8.968;2023-02-01T12:03:17;5.00;99.90
6822;DHT22;3449;48.728;8.968;2023-02-01T12:05:54;5.00;99.90
6822;DHT22;3449;48.728;8.968;2023-02-01T12:08:33;5.00;99.90
6822;DHT22;3449;48.728;8.968;2023-02-01T12:11:30;5.00;99.90
6822;DHT22;3449;48.728;8.968;2023-02-01T12:14:11;5.00;99.90
6822;DHT22;3449;48.728;8.968;2023-02-01T12:16:50;4.90;99.90
6822;DHT22;3449;48.728;8.968;2023-02-01T12:19:42;4.90;99.90
6822;DHT22;3449;48.728;8.968;2023-02-01T12:22:25;4.90;99.90
6822;DHT22;3449;48.728;8.968;2023-02-01T12:28:17;4.80;99.90
6822;DHT22;3449;48.728;8.968;2023-02-01T12:34:20;4.80;99.90
6822;DHT22;3449;48.728;8.968;2023-02-01T12:37:00;4.80;99.90
6822;DHT22;3449;48.728;8.968;2023-02-01T12:39:37;4.80;99.90
6822;DHT22;3449;48.728;8.968;2023-02-01T12:42:13;4.70;99.90
6822;DHT22;3449;48.728;8.968;2023-02-01T12:44:47;4.70;99.90
6822;DHT22;3449;48.728;8.968;2023-02-01T12:47:21;4.70;99.90
6822;DHT22;3449;48.728;8.968;2023-02-01T12:49:54;4.60;99.90
6822;DHT22;3449;48.728;8.968;2023-02-01T12:52:30;4.70;99.90
6822;DHT22;3449;48.728;8.968;2023-02-01T12:55:07;4.70;99.90
6822;DHT22;3449;48.728;8.968;2023-02-01T12:57:39;4.70;99.90
6822;DHT22;3449;48.728;8.968;2023-02-01T13:00:16;4.60;99.90
6822;DHT22;3449;48.728;8.968;2023-02-01T13:02:54;4.60;99.90
6822;DHT22;3449;48.728;8.968;2023-02-01T13:05:24;4.60;99.90
6822;DHT22;3449;48.728;8.968;2023-02-01T13:07:59;4.70;99.90
6822;DHT22;3449;48.728;8.968;2023-02-01T13:10:33;4.50;99.90
6822;DHT22;3449;48.728;8.968;2023-02-01T13:13:07;4.50;99.90
6822;DHT22;3449;48.728;8.968;2023-02-01T13:15:40;4.50;99.90
6822;DHT22;3449;48.728;8.968;2023-02-01T13:18:13;4.50;99.90
6822;DHT22;3449;48.728;8.968;2023-02-01T13:20:47;4.50;99.90
6822;DHT22;3449;48.728;8.968;2023-02-01T13:23:20;4.50;99.90
6822;DHT22;3449;48.728;8.968;2023-02-01T13:25:51;4.50;99.90
6822;DHT22;3449;48.728;8.968;2023-02-01T13:28:25;4.60;99.90
6822;DHT22;3449;48.728;8.968;2023-02-01T13:31:05;4.60;99.90
6822;DHT22;3449;48.728;8.968;2023-02-01T13:33:51;4.60;99.90
6822;DHT22;3449;48.728;8.968;2023-02-01T13:36:52;4.50;99.90
6822;DHT22;3449;48.728;8.968;2023-02-01T13:39:47;4.50;99.90
6822;DHT22;3449;48.728;8.968;2023-02-01T13:42:20;4.50;99.90
6822;DHT22;3449;48.728;8.968;2023-02-01T13:44:51;4.40;99.90
6822;DHT22;3449;48.728;8.968;2023-02-01T13:47:26;4.50;99.90
6822;DHT22;3449;48.728;8.968;2023-02-01T13:49:56;4.50;99.90
6822;DHT22;3449;48.728;8.968;2023-02-01T13:52:31;4.50;99.90
6822;DHT22;3449;48.728;8.968;2023-02-01T13:55:26;4.50;99.90
6822;DHT22;3449;48.728;8.968;2023-02-01T13:58:04;4.50;99.90
6822;DHT22;3449;48.728;8.968;2023-02-01T14:00:33;4.40;99.90
6822;DHT22;3449;48.728;8.968;2023-02-01T14:03:22;4.50;99.90
6822;DHT22;3449;48.728;8.968;2023-02-01T14:09:33;4.50;99.90
6822;DHT22;3449;48.728;8.968;2023-02-01T14:12:42;4.50;99.90
6822;DHT22;3449;48.728;8.968;2023-02-01T14:15:36;4.50;99.90
6822;DHT22;3449;48.728;8.968;2023-02-01T14:21:16;4.50;99.90
6822;DHT22;3449;48.728;8.968;2023-02-01T14:23:46;4.50;99.90
6822;DHT22;3449;48.728;8.968;2023-02-01T14:26:19;4.60;99.90
6822;DHT22;3449;48.728;8.968;2023-02-01T14:28:51;4.50;99.90
6822;DHT22;3449;48.728;8.968;2023-02-01T14:31:52;4.60;99.90
6822;DHT22;3449;48.728;8.968;2023-02-01T14:34:24;4.50;99.90
6822;DHT22;3449;48.728;8.968;2023-02-01T14:36:57;4.50;99.90
6822;DHT22;3449;48.728;8.968;2023-02-01T14:39:37;4.50;99.90
6822;DHT22;3449;48.728;8.968;2023-02-01T14:42:19;4.50;99.90
6822;DHT22;3449;48.728;8.968;2023-02-01T14:44:48;4.50;99.90
6822;DHT22;3449;48.728;8.968;2023-02-01T14:47:32;4.50;99.90
6822;DHT22;3449;48.728;8.968;2023-02-01T14:50:18;4.50;99.90
6822;DHT22;3449;48.728;8.968;2023-02-01T14:52:51;4.50;99.90
6822;DHT22;3449;48.728;8.968;2023-02-01T14:55:27;4.40;99.90
6822;DHT22;3449;48.728;8.968;2023-02-01T14:57:58;4.40;99.90
6822;DHT22;3449;48.728;8.968;2023-02-01T15:00:28;4.40;99.90
6822;DHT22;3449;48.728;8.968;2023-02-01T15:03:19;4.40;99.90
6822;DHT22;3449;48.728;8.968;2023-02-01T15:05:55;4.40;99.90
6822;DHT22;3449;48.728;8.968;2023-02-01T15:08:26;4.40;99.90
6822;DHT22;3449;48.728;8.968;2023-02-01T15:10:55;4.40;99.90
6822;DHT22;3449;48.728;8.968;2023-02-01T15:13:25;4.30;99.90
6822;DHT22;3449;48.728;8.968;2023-02-01T15:16:03;4.40;99.90
6822;DHT22;3449;48.728;8.968;2023-02-01T15:18:32;4.40;99.90
6822;DHT22;3449;48.728;8.968;2023-02-01T15:21:00;4.40;99.90
6822;DHT22;3449;48.728;8.968;2023-02-01T15:23:28;4.40;99.90
6822;DHT22;3449;48.728;8.968;2023-02-01T15:25:56;4.50;99.90
6822;DHT22;3449;48.728;8.968;2023-02-01T15:28:24;4.40;99.90
6822;DHT22;3449;48.728;8.968;2023-02-01T15:30:56;4.50;99.90
6822;DHT22;3449;48.728;8.968;2023-02-01T15:33:24;4.50;99.90
6822;DHT22;3449;48.728;8.968;2023-02-01T15:35:54;4.40;99.90
6822;DHT22;3449;48.728;8.968;2023-02-01T15:38:36;4.50;99.90
6822;DHT22;3449;48.728;8.968;2023-02-01T15:41:09;4.50;99.90
6822;DHT22;3449;48.728;8.968;2023-02-01T15:43:39;4.50;99.90
6822;DHT22;3449;48.728;8.968;2023-02-01T15:46:10;4.50;99.90
6822;DHT22;3449;48.728;8.968;2023-02-01T15:48:42;4.50;99.90
6822;DHT22;3449;48.728;8.968;2023-02-01T15:51:17;4.50;99.90
6822;DHT22;3449;48.728;8.968;2023-02-01T15:53:47;4.50;99.90
6822;DHT22;3449;48.728;8.968;2023-02-01T15:56:15;4.50;99.90
6822;DHT22;3449;48.728;8.968;2023-02-01T15:58:52;4.50;99.90
6822;DHT22;3449;48.728;8.968;2023-02-01T16:01:19;4.40;99.90
6822;DHT22;3449;48.728;8.968;2023-02-01T16:03:47;4.40;99.90
6822;DHT22;3449;48.728;8.968;2023-02-01T16:06:29;4.40;99.90
6822;DHT22;3449;48.728;8.968;2023-02-01T16:09:02;4.30;99.90
6822;DHT22;3449;48.728;8.968;2023-02-01T16:11:31;4.30;99.90
6822;DHT22;3449;48.728;8.968;2023-02-01T16:13:59;4.30;99.90
6822;DHT22;3449;48.728;8.968;2023-02-01T16:16:28;4.20;99.90
6822;DHT22;3449;48.728;8.968;2023-02-01T16:18:55;4.20;99.90
6822;DHT22;3449;48.728;8.968;2023-02-01T16:21:22;4.20;99.90
6822;DHT22;3449;48.728;8.968;2023-02-01T16:23:51;4.20;99.90
6822;DHT22;3449;48.728;8.968;2023-02-01T16:26:19;4.10;99.90
6822;DHT22;3449;48.728;8.968;2023-02-01T16:28:47;4.10;99.90
6822;DHT22;3449;48.728;8.968;2023-02-01T16:31:17;4.10;99.90
6822;DHT22;3449;48.728;8.968;2023-02-01T16:33:49;4.10;99.90
6822;DHT22;3449;48.728;8.968;2023-02-01T16:36:18;4.10;99.90
6822;DHT22;3449;48.728;8.968;2023-02-01T16:38:45;4.10;99.90
6822;DHT22;3449;48.728;8.968;2023-02-01T16:41:17;4.10;99.90
6822;DHT22;3449;48.728;8.968;2023-02-01T16:43:45;4.10;99.90
6822;DHT22;3449;48.728;8.968;2023-02-01T16:46:14;4.10;99.90
6822;DHT22;3449;48.728;8.968;2023-02-01T16:48:44;4.10;99.90
6822;DHT22;3449;48.728;8.968;2023-02-01T16:51:14;4.10;99.90
6822;DHT22;3449;48.728;8.968;2023-02-01T16:53:43;4.10;99.90
6822;DHT22;3449;48.728;8.968;2023-02-01T16:56:14;4.00;99.90
6822;DHT22;3449;48.728;8.968;2023-02-01T16:58:43;4.00;99.90
6822;DHT22;3449;48.728;8.968;2023-02-01T17:01:11;4.00;99.90
6822;DHT22;3449;48.728;8.968;2023-02-01T17:03:39;4.00;99.90
6822;DHT22;3449;48.728;8.968;2023-02-01T17:06:07;4.00;99.90
6822;DHT22;3449;48.728;8.968;2023-02-01T17:08:36;4.00;99.90